sensor_id;sensor_type;location;lat;lon;timestamp;temperature;humidity
1351;DHT22;669;50.206;9.998;2023-10-31T00:00:40;11.40;63.90
1351;DHT22;669;50.206;9.998;2023-10-31T00:03:08;11.40;63.90
1351;DHT22;669;50.206;9.998;2023-10-31T00:05:36;11.40;63.90
1351;DHT22;669;50.206;9.998;2023-10-31T00:08:05;11.40;63.90
1351;DHT22;669;50.206;9.998;2023-10-31T00:10:33;11.50;63.90
1351;DHT22;669;50.206;9.998;2023-10-31T00:13:01;11.40;63.80
1351;DHT22;669;50.206;9.998;2023-10-31T00:15:29;11.40;63.80
1351;DHT22;669;50.206;9.998;2023-10-31T00:17:58;11.40;63.80
1351;DHT22;669;50.206;9.998;2023-10-31T00:20:26;11.40;63.80
1351;DHT22;669;50.206;9.998;2023-10-31T00:22:54;11.40;63.80
1351;DHT22;669;50.206;9.998;2023-10-31T00:25:22;11.40;63.80
1351;DHT22;669;50.206;9.998;2023-10-31T00:27:50;11.40;63.80
1351;DHT22;669;50.206;9.998;2023-10-31T00:30:18;11.30;63.70
1351;DHT22;669;50.206;9.998;2023-10-31T00:32:46;11.40;63.70
1351;DHT22;669;50.206;9.998;2023-10-31T00:35:16;11.30;63.70
1351;DHT22;669;50.206;9.998;2023-10-31T00:37:44;11.40;63.70
1351;DHT22;669;50.206;9.998;2023-10-31T00:40:12;11.40;63.40
1351;DHT22;669;50.206;9.998;2023-10-31T00:42:41;11.40;63.30
1351;DHT22;669;50.206;9.998;2023-10-31T00:45:09;11.40;63.30
1351;DHT22;669;50.206;9.998;2023-10-31T00:47:37;11.40;63.30
1351;DHT22;669;50.206;9.998;2023-10-31T00:50:06;11.40;63.30
1351;DHT22;669;50.206;9.998;2023-10-31T00:52:36;11.40;63.20
1351;DHT22;669;50.206;9.998;2023-10-31T00:55:05;11.40;63.10
1351;DHT22;669;50.206;9.998;2023-10-31T00:57:33;11.40;62.90
1351;DHT22;669;50.206;9.998;2023-10-31T01:00:01;11.40;63.00
1351;DHT22;669;50.206;9.998;2023-10-31T01:02:29;11.40;62.90
1351;DHT22;669;50.206;9.998;2023-10-31T01:04:57;11.40;62.60
1351;DHT22;669;50.206;9.998;2023-10-31T01:07:25;11.40;62.50
1351;DHT22;669;50.206;9.998;2023-10-31T01:09:54;11.40;62.50
1351;DHT22;669;50.206;9.998;2023-10-31T01:12:22;11.40;62.40
1351;DHT22;669;50.206;9.998;2023-10-31T01:14:50;11.30;62.30
1351;DHT22;669;50.206;9.998;2023-10-31T01:17:18;11.30;62.20
1351;DHT22;669;50.206;9.998;2023-10-31T01:19:47;11.30;62.10
1351;DHT22;669;50.206;9.998;2023-10-31T01:22:15;11.30;62.00
1351;DHT22;669;50.206;9.998;2023-10-31T01:24:43;11.30;61.90
1351;DHT22;669;50.206;9.998;2023-10-31T01:27:12;11.30;61.90
1351;DHT22;669;50.206;9.998;2023-10-31T01:29:40;11.20;61.80
1351;DHT22;669;50.206;9.998;2023-10-31T01:32:08;11.20;61.80
1351;DHT22;669;50.206;9.998;2023-10-31T01:34:47;11.20;61.60
1351;DHT22;669;50.206;9.998;2023-10-31T01:37:15;11.10;61.70
1351;DHT22;669;50.206;9.998;2023-10-31T01:39:46;11.10;61.70
1351;DHT22;669;50.206;9.998;2023-10-31T01:42:15;11.10;61.50
1351;DHT22;669;50.206;9.998;2023-10-31T01:44:43;11.10;60.40
1351;DHT22;669;50.206;9.998;2023-10-31T01:47:11;11.00;60.30
1351;DHT22;669;50.206;9.998;2023-10-31T01:49:40;11.00;60.20
1351;DHT22;669;50.206;9.998;2023-10-31T01:52:08;11.00;60.10
1351;DHT22;669;50.206;9.998;2023-10-31T01:54:37;11.00;59.40
1351;DHT22;669;50.206;9.998;2023-10-31T01:57:05;10.90;59.50
1351;DHT22;669;50.206;9.998;2023-10-31T01:59:35;10.90;58.80
1351;DHT22;669;50.206;9.998;2023-10-31T02:02:04;10.90;58.60
1351;DHT22;669;50.206;9.998;2023-10-31T02:04:32;11.00;56.90
1351;DHT22;669;50.206;9.998;2023-10-31T02:07:01;10.90;56.30
1351;DHT22;669;50.206;9.998;2023-10-31T02:09:29;10.90;56.10
1351;DHT22;669;50.206;9.998;2023-10-31T02:11:57;10.90;55.70
1351;DHT22;669;50.206;9.998;2023-10-31T02:14:25;10.90;54.80
1351;DHT22;669;50.206;9.998;2023-10-31T02:16:54;10.90;54.40
1351;DHT22;669;50.206;9.998;2023-10-31T02:19:22;10.80;54.30
1351;DHT22;669;50.206;9.998;2023-10-31T02:21:52;10.80;54.30
1351;DHT22;669;50.206;9.998;2023-10-31T02:24:20;10.80;53.20
1351;DHT22;669;50.206;9.998;2023-10-31T02:26:47;10.70;52.50
1351;DHT22;669;50.206;9.998;2023-10-31T02:29:15;10.70;51.20
1351;DHT22;669;50.206;9.998;2023-10-31T02:31:43;10.80;51.00
1351;DHT22;669;50.206;9.998;2023-10-31T02:34:11;10.70;51.00
1351;DHT22;669;50.206;9.998;2023-10-31T02:36:39;10.70;51.00
1351;DHT22;669;50.206;9.998;2023-10-31T02:39:09;10.70;51.00
1351;DHT22;669;50.206;9.998;2023-10-31T02:41:37;10.70;51.00
1351;DHT22;669;50.206;9.998;2023-10-31T02:44:05;10.60;50.90
1351;DHT22;669;50.206;9.998;2023-10-31T02:46:33;10.70;49.40
1351;DHT22;669;50.206;9.998;2023-10-31T02:49:05;10.60;49.30
1351;DHT22;669;50.206;9.998;2023-10-31T02:51:33;10.70;49.30
1351;DHT22;669;50.206;9.998;2023-10-31T02:54:00;10.60;49.10
1351;DHT22;669;50.206;9.998;2023-10-31T02:56:30;10.60;50.00
1351;DHT22;669;50.206;9.998;2023-10-31T02:58:58;10.60;49.30
1351;DHT22;669;50.206;9.998;2023-10-31T03:01:28;10.60;50.50
1351;DHT22;669;50.206;9.998;2023-10-31T03:03:56;10.60;50.90
1351;DHT22;669;50.206;9.998;2023-10-31T03:06:24;10.50;50.70
1351;DHT22;669;50.206;9.998;2023-10-31T03:08:52;10.50;50.80
1351;DHT22;669;50.206;9.998;2023-10-31T03:11:21;10.50;50.20
1351;DHT22;669;50.206;9.998;2023-10-31T03:13:51;10.50;50.30
1351;DHT22;669;50.206;9.998;2023-10-31T03:16:19;10.40;50.70
1351;DHT22;669;50.206;9.998;2023-10-31T03:18:48;10.40;50.70
1351;DHT22;669;50.206;9.998;2023-10-31T03:21:16;10.40;50.10
1351;DHT22;669;50.206;9.998;2023-10-31T03:23:47;10.40;50.70
1351;DHT22;669;50.206;9.998;2023-10-31T03:26:16;10.40;50.70
1351;DHT22;669;50.206;9.998;2023-10-31T03:28:45;10.40;50.80
1351;DHT22;669;50.206;9.998;2023-10-31T03:31:14;10.30;49.30
1351;DHT22;669;50.206;9.998;2023-10-31T03:33:43;10.30;48.60
1351;DHT22;669;50.206;9.998;2023-10-31T03:36:11;10.30;48.80
1351;DHT22;669;50.206;9.998;2023-10-31T03:38:39;10.30;47.20
1351;DHT22;669;50.206;9.998;2023-10-31T03:41:08;10.30;47.30
1351;DHT22;669;50.206;9.998;2023-10-31T03:43:36;10.30;46.60
1351;DHT22;669;50.206;9.998;2023-10-31T03:46:04;10.30;47.10
1351;DHT22;669;50.206;9.998;2023-10-31T03:48:33;10.20;46.40
1351;DHT22;669;50.206;9.998;2023-10-31T03:51:01;10.20;45.90
1351;DHT22;669;50.206;9.998;2023-10-31T03:53:29;10.20;46.00
1351;DHT22;669;50.206;9.998;2023-10-31T03:55:58;10.20;45.90
1351;DHT22;669;50.206;9.998;2023-10-31T03:58:27;10.20;45.90
1351;DHT22;669;50.206;9.998;2023-10-31T04:00:55;10.10;45.10
1351;DHT22;669;50.206;9.998;2023-10-31T04:03:23;10.10;44.30
1351;DHT22;669;50.206;9.998;2023-10-31T04:05:52;10.10;43.50
1351;DHT22;669;50.206;9.998;2023-10-31T04:08:21;10.10;42.90
1351;DHT22;669;50.206;9.998;2023-10-31T04:10:49;10.10;42.60
1351;DHT22;669;50.206;9.998;2023-10-31T04:13:17;10.00;42.30
1351;DHT22;669;50.206;9.998;2023-10-31T04:15:45;10.00;43.40
1351;DHT22;669;50.206;9.998;2023-10-31T04:18:13;10.10;43.40
1351;DHT22;669;50.206;9.998;2023-10-31T04:20:42;10.00;43.20
1351;DHT22;669;50.206;9.998;2023-10-31T04:23:11;9.90;44.40
1351;DHT22;669;50.206;9.998;2023-10-31T04:25:39;9.90;43.80
1351;DHT22;669;50.206;9.998;2023-10-31T04:28:07;9.90;44.50
1351;DHT22;669;50.206;9.998;2023-10-31T04:30:35;9.90;45.10
1351;DHT22;669;50.206;9.998;2023-10-31T04:33:03;9.80;44.60
1351;DHT22;669;50.206;9.998;2023-10-31T04:35:31;9.80;43.90
1351;DHT22;669;50.206;9.998;2023-10-31T04:37:59;9.70;43.80
1351;DHT22;669;50.206;9.998;2023-10-31T04:40:28;9.70;44.70
1351;DHT22;669;50.206;9.998;2023-10-31T04:42:57;9.60;44.70
1351;DHT22;669;50.206;9.998;2023-10-31T04:45:25;9.70;45.30
1351;DHT22;669;50.206;9.998;2023-10-31T04:47:53;9.70;45.00
1351;DHT22;669;50.206;9.998;2023-10-31T04:50:22;9.60;45.40
1351;DHT22;669;50.206;9.998;2023-10-31T04:52:49;9.60;45.80
1351;DHT22;669;50.206;9.998;2023-10-31T04:55:17;9.60;45.90
1351;DHT22;669;50.206;9.998;2023-10-31T04:57:47;9.60;45.60
1351;DHT22;669;50.206;9.998;2023-10-31T05:00:15;9.60;45.80
1351;DHT22;669;50.206;9.998;2023-10-31T05:02:43;9.60;45.70
1351;DHT22;669;50.206;9.998;2023-10-31T05:05:11;9.50;45.80
1351;DHT22;669;50.206;9.998;2023-10-31T05:07:39;9.50;45.90
1351;DHT22;669;50.206;9.998;2023-10-31T05:10:08;9.50;47.20
1351;DHT22;669;50.206;9.998;2023-10-31T05:12:36;9.50;46.30
1351;DHT22;669;50.206;9.998;2023-10-31T05:15:07;9.50;47.20
1351;DHT22;669;50.206;9.998;2023-10-31T05:17:35;9.50;47.20
1351;DHT22;669;50.206;9.998;2023-10-31T05:20:04;9.50;47.20
1351;DHT22;669;50.206;9.998;2023-10-31T05:22:32;9.50;47.20
1351;DHT22;669;50.206;9.998;2023-10-31T05:24:59;9.50;46.90
1351;DHT22;669;50.206;9.998;2023-10-31T05:27:29;9.50;48.50
1351;DHT22;669;50.206;9.998;2023-10-31T05:30:00;9.50;49.30
1351;DHT22;669;50.206;9.998;2023-10-31T05:32:30;9.50;49.00
1351;DHT22;669;50.206;9.998;2023-10-31T05:34:57;9.50;49.00
1351;DHT22;669;50.206;9.998;2023-10-31T05:37:26;9.40;49.50
1351;DHT22;669;50.206;9.998;2023-10-31T05:39:54;9.40;50.50
1351;DHT22;669;50.206;9.998;2023-10-31T05:42:22;9.40;50.80
1351;DHT22;669;50.206;9.998;2023-10-31T05:44:51;9.40;50.90
1351;DHT22;669;50.206;9.998;2023-10-31T05:47:19;9.40;52.20
1351;DHT22;669;50.206;9.998;2023-10-31T05:49:48;9.40;52.40
1351;DHT22;669;50.206;9.998;2023-10-31T05:52:16;9.40;53.00
1351;DHT22;669;50.206;9.998;2023-10-31T05:54:44;9.30;53.40
1351;DHT22;669;50.206;9.998;2023-10-31T05:57:12;9.30;53.80
1351;DHT22;669;50.206;9.998;2023-10-31T05:59:40;9.30;53.80
1351;DHT22;669;50.206;9.998;2023-10-31T06:02:08;9.30;53.70
1351;DHT22;669;50.206;9.998;2023-10-31T06:04:36;9.30;53.60
1351;DHT22;669;50.206;9.998;2023-10-31T06:07:06;9.30;53.90
1351;DHT22;669;50.206;9.998;2023-10-31T06:09:34;9.30;53.80
1351;DHT22;669;50.206;9.998;2023-10-31T06:12:02;9.30;53.90
1351;DHT22;669;50.206;9.998;2023-10-31T06:14:30;9.30;54.00
1351;DHT22;669;50.206;9.998;2023-10-31T06:16:58;9.30;53.80
1351;DHT22;669;50.206;9.998;2023-10-31T06:19:28;9.40;53.00
1351;DHT22;669;50.206;9.998;2023-10-31T06:21:55;9.40;52.60
1351;DHT22;669;50.206;9.998;2023-10-31T06:24:25;9.40;52.70
1351;DHT22;669;50.206;9.998;2023-10-31T06:26:53;9.40;53.00
1351;DHT22;669;50.206;9.998;2023-10-31T06:29:20;9.40;52.80
1351;DHT22;669;50.206;9.998;2023-10-31T06:32:08;9.40;53.00
1351;DHT22;669;50.206;9.998;2023-10-31T06:34:36;9.40;53.00
1351;DHT22;669;50.206;9.998;2023-10-31T06:37:04;9.40;53.20
1351;DHT22;669;50.206;9.998;2023-10-31T06:39:33;9.40;53.60
1351;DHT22;669;50.206;9.998;2023-10-31T06:42:01;9.40;53.70
1351;DHT22;669;50.206;9.998;2023-10-31T06:44:29;9.40;53.90
1351;DHT22;669;50.206;9.998;2023-10-31T06:46:57;9.40;54.00
1351;DHT22;669;50.206;9.998;2023-10-31T06:49:25;9.40;54.20
1351;DHT22;669;50.206;9.998;2023-10-31T06:51:53;9.40;54.30
1351;DHT22;669;50.206;9.998;2023-10-31T06:54:21;9.50;54.00
1351;DHT22;669;50.206;9.998;2023-10-31T06:56:51;9.50;53.70
1351;DHT22;669;50.206;9.998;2023-10-31T06:59:19;9.50;53.40
1351;DHT22;669;50.206;9.998;2023-10-31T07:01:47;9.50;52.40
1351;DHT22;669;50.206;9.998;2023-10-31T07:04:15;9.50;51.60
1351;DHT22;669;50.206;9.998;2023-10-31T07:06:43;9.60;52.30
1351;DHT22;669;50.206;9.998;2023-10-31T07:09:11;9.60;51.00
1351;DHT22;669;50.206;9.998;2023-10-31T07:11:39;9.60;48.30
1351;DHT22;669;50.206;9.998;2023-10-31T07:14:08;9.60;48.80
1351;DHT22;669;50.206;9.998;2023-10-31T07:16:36;9.60;47.00
1351;DHT22;669;50.206;9.998;2023-10-31T07:19:04;9.60;46.80
1351;DHT22;669;50.206;9.998;2023-10-31T07:21:32;9.70;45.70
1351;DHT22;669;50.206;9.998;2023-10-31T07:24:00;9.70;45.30
1351;DHT22;669;50.206;9.998;2023-10-31T07:26:28;9.70;45.40
1351;DHT22;669;50.206;9.998;2023-10-31T07:28:56;9.70;44.70
1351;DHT22;669;50.206;9.998;2023-10-31T07:31:25;9.80;44.40
1351;DHT22;669;50.206;9.998;2023-10-31T07:33:53;9.80;44.10
1351;DHT22;669;50.206;9.998;2023-10-31T07:36:21;9.90;41.60
1351;DHT22;669;50.206;9.998;2023-10-31T07:38:49;9.90;40.10
1351;DHT22;669;50.206;9.998;2023-10-31T07:41:17;10.00;39.00
1351;DHT22;669;50.206;9.998;2023-10-31T07:43:45;10.10;37.60
1351;DHT22;669;50.206;9.998;2023-10-31T07:46:13;10.10;38.20
1351;DHT22;669;50.206;9.998;2023-10-31T07:48:42;10.10;37.30
1351;DHT22;669;50.206;9.998;2023-10-31T07:51:10;10.10;36.80
1351;DHT22;669;50.206;9.998;2023-10-31T07:53:38;10.20;36.30
1351;DHT22;669;50.206;9.998;2023-10-31T07:56:14;10.20;35.80
1351;DHT22;669;50.206;9.998;2023-10-31T07:58:42;10.20;34.40
1351;DHT22;669;50.206;9.998;2023-10-31T08:01:10;10.20;35.60
1351;DHT22;669;50.206;9.998;2023-10-31T08:03:39;10.20;33.70
1351;DHT22;669;50.206;9.998;2023-10-31T08:06:10;10.20;35.30
1351;DHT22;669;50.206;9.998;2023-10-31T08:08:38;10.20;35.30
1351;DHT22;669;50.206;9.998;2023-10-31T08:11:07;10.30;33.70
1351;DHT22;669;50.206;9.998;2023-10-31T08:13:36;10.30;33.80
1351;DHT22;669;50.206;9.998;2023-10-31T08:16:05;10.40;33.60
1351;DHT22;669;50.206;9.998;2023-10-31T08:18:35;10.40;33.60
1351;DHT22;669;50.206;9.998;2023-10-31T08:21:03;10.40;32.60
1351;DHT22;669;50.206;9.998;2023-10-31T08:23:33;10.40;30.90
1351;DHT22;669;50.206;9.998;2023-10-31T08:26:02;10.40;31.80
1351;DHT22;669;50.206;9.998;2023-10-31T08:28:30;10.50;30.90
1351;DHT22;669;50.206;9.998;2023-10-31T08:30:58;10.50;30.30
1351;DHT22;669;50.206;9.998;2023-10-31T08:33:26;10.50;31.90
1351;DHT22;669;50.206;9.998;2023-10-31T08:35:53;10.50;31.90
1351;DHT22;669;50.206;9.998;2023-10-31T08:38:21;10.50;30.50
1351;DHT22;669;50.206;9.998;2023-10-31T08:40:59;10.60;29.50
1351;DHT22;669;50.206;9.998;2023-10-31T08:43:27;10.70;28.30
1351;DHT22;669;50.206;9.998;2023-10-31T08:45:55;10.80;27.80
1351;DHT22;669;50.206;9.998;2023-10-31T08:48:23;10.90;26.70
1351;DHT22;669;50.206;9.998;2023-10-31T08:50:51;10.90;26.70
1351;DHT22;669;50.206;9.998;2023-10-31T08:53:19;10.90;26.00
1351;DHT22;669;50.206;9.998;2023-10-31T08:55:47;10.80;27.20
1351;DHT22;669;50.206;9.998;2023-10-31T08:58:16;10.80;28.70
1351;DHT22;669;50.206;9.998;2023-10-31T09:00:44;10.70;29.20
1351;DHT22;669;50.206;9.998;2023-10-31T09:03:12;10.70;29.30
1351;DHT22;669;50.206;9.998;2023-10-31T09:05:41;10.70;29.70
1351;DHT22;669;50.206;9.998;2023-10-31T09:08:09;10.70;29.90
1351;DHT22;669;50.206;9.998;2023-10-31T09:10:37;10.80;28.90
1351;DHT22;669;50.206;9.998;2023-10-31T09:13:05;10.80;29.80
1351;DHT22;669;50.206;9.998;2023-10-31T09:15:35;10.80;28.00
1351;DHT22;669;50.206;9.998;2023-10-31T09:18:05;10.80;28.20
1351;DHT22;669;50.206;9.998;2023-10-31T09:20:33;10.80;27.10
1351;DHT22;669;50.206;9.998;2023-10-31T09:23:02;10.90;27.00
1351;DHT22;669;50.206;9.998;2023-10-31T09:25:30;10.90;27.40
1351;DHT22;669;50.206;9.998;2023-10-31T09:27:59;10.90;27.70
1351;DHT22;669;50.206;9.998;2023-10-31T09:30:26;10.90;28.50
1351;DHT22;669;50.206;9.998;2023-10-31T09:32:56;10.90;27.40
1351;DHT22;669;50.206;9.998;2023-10-31T09:35:24;10.90;27.20
1351;DHT22;669;50.206;9.998;2023-10-31T09:37:53;10.90;25.20
1351;DHT22;669;50.206;9.998;2023-10-31T09:40:21;10.90;26.10
1351;DHT22;669;50.206;9.998;2023-10-31T09:42:49;10.80;25.30
1351;DHT22;669;50.206;9.998;2023-10-31T09:45:17;10.80;25.20
1351;DHT22;669;50.206;9.998;2023-10-31T09:47:45;10.80;24.70
1351;DHT22;669;50.206;9.998;2023-10-31T09:50:15;10.80;25.60
1351;DHT22;669;50.206;9.998;2023-10-31T09:52:44;10.80;25.60
1351;DHT22;669;50.206;9.998;2023-10-31T09:55:13;10.80;25.40
1351;DHT22;669;50.206;9.998;2023-10-31T09:57:41;10.70;24.50
1351;DHT22;669;50.206;9.998;2023-10-31T10:00:10;10.80;25.70
1351;DHT22;669;50.206;9.998;2023-10-31T10:02:38;10.70;26.20
1351;DHT22;669;50.206;9.998;2023-10-31T10:05:09;10.70;26.30
1351;DHT22;669;50.206;9.998;2023-10-31T10:07:41;10.60;25.80
1351;DHT22;669;50.206;9.998;2023-10-31T10:10:11;10.60;26.30
1351;DHT22;669;50.206;9.998;2023-10-31T10:12:41;10.50;27.00
1351;DHT22;669;50.206;9.998;2023-10-31T10:15:10;10.50;27.10
1351;DHT22;669;50.206;9.998;2023-10-31T10:17:41;10.60;27.10
1351;DHT22;669;50.206;9.998;2023-10-31T10:20:15;10.60;27.00
1351;DHT22;669;50.206;9.998;2023-10-31T10:22:46;10.60;27.30
1351;DHT22;669;50.206;9.998;2023-10-31T10:25:15;10.50;27.80
1351;DHT22;669;50.206;9.998;2023-10-31T10:27:44;10.60;29.50
1351;DHT22;669;50.206;9.998;2023-10-31T10:30:14;10.60;28.90
1351;DHT22;669;50.206;9.998;2023-10-31T10:32:42;10.60;27.30
1351;DHT22;669;50.206;9.998;2023-10-31T10:35:10;10.60;27.90
1351;DHT22;669;50.206;9.998;2023-10-31T10:37:39;10.60;27.90
1351;DHT22;669;50.206;9.998;2023-10-31T10:40:10;10.60;27.00
1351;DHT22;669;50.206;9.998;2023-10-31T10:42:44;10.60;27.80
1351;DHT22;669;50.206;9.998;2023-10-31T10:45:14;10.70;27.20
1351;DHT22;669;50.206;9.998;2023-10-31T10:47:47;10.70;25.70
1351;DHT22;669;50.206;9.998;2023-10-31T10:50:15;10.70;25.00
1351;DHT22;669;50.206;9.998;2023-10-31T10:52:50;10.80;24.20
1351;DHT22;669;50.206;9.998;2023-10-31T10:55:25;10.90;23.10
1351;DHT22;669;50.206;9.998;2023-10-31T10:58:00;10.90;24.20
1351;DHT22;669;50.206;9.998;2023-10-31T11:00:28;11.00;22.50
1351;DHT22;669;50.206;9.998;2023-10-31T11:02:57;11.00;24.20
1351;DHT22;669;50.206;9.998;2023-10-31T11:05:25;11.10;22.90
1351;DHT22;669;50.206;9.998;2023-10-31T11:07:53;11.20;21.50
1351;DHT22;669;50.206;9.998;2023-10-31T11:10:26;11.20;20.80
1351;DHT22;669;50.206;9.998;2023-10-31T11:12:55;11.30;22.20
1351;DHT22;669;50.206;9.998;2023-10-31T11:15:24;11.30;23.00
1351;DHT22;669;50.206;9.998;2023-10-31T11:17:53;11.30;23.20
1351;DHT22;669;50.206;9.998;2023-10-31T11:20:22;11.30;21.80
1351;DHT22;669;50.206;9.998;2023-10-31T11:22:55;11.40;21.30
1351;DHT22;669;50.206;9.998;2023-10-31T11:25:26;11.40;20.10
1351;DHT22;669;50.206;9.998;2023-10-31T11:28:11;11.30;20.60
1351;DHT22;669;50.206;9.998;2023-10-31T11:30:40;11.30;21.40
1351;DHT22;669;50.206;9.998;2023-10-31T11:33:11;11.30;20.10
1351;DHT22;669;50.206;9.998;2023-10-31T11:35:40;11.30;20.00
1351;DHT22;669;50.206;9.998;2023-10-31T11:38:11;11.30;19.80
1351;DHT22;669;50.206;9.998;2023-10-31T11:40:58;11.30;20.00
1351;DHT22;669;50.206;9.998;2023-10-31T11:43:36;11.40;19.40
1351;DHT22;669;50.206;9.998;2023-10-31T11:46:04;11.40;20.10
1351;DHT22;669;50.206;9.998;2023-10-31T11:48:45;11.50;20.20
1351;DHT22;669;50.206;9.998;2023-10-31T11:51:14;11.60;18.60
1351;DHT22;669;50.206;9.998;2023-10-31T11:53:43;11.70;17.30
1351;DHT22;669;50.206;9.998;2023-10-31T11:56:12;11.70;18.00
1351;DHT22;669;50.206;9.998;2023-10-31T11:58:41;11.70;18.00
1351;DHT22;669;50.206;9.998;2023-10-31T12:01:10;11.70;18.50
1351;DHT22;669;50.206;9.998;2023-10-31T12:03:39;11.80;17.00
1351;DHT22;669;50.206;9.998;2023-10-31T12:06:08;11.80;16.70
1351;DHT22;669;50.206;9.998;2023-10-31T12:08:38;11.80;15.30
1351;DHT22;669;50.206;9.998;2023-10-31T12:11:07;11.80;14.50
1351;DHT22;669;50.206;9.998;2023-10-31T12:13:37;11.80;15.50
1351;DHT22;669;50.206;9.998;2023-10-31T12:16:07;11.70;15.50
1351;DHT22;669;50.206;9.998;2023-10-31T12:18:36;11.70;16.40
1351;DHT22;669;50.206;9.998;2023-10-31T12:21:06;11.80;13.90
1351;DHT22;669;50.206;9.998;2023-10-31T12:23:34;11.80;13.60
1351;DHT22;669;50.206;9.998;2023-10-31T12:26:03;11.80;14.90
1351;DHT22;669;50.206;9.998;2023-10-31T12:28:31;11.80;13.80
1351;DHT22;669;50.206;9.998;2023-10-31T12:31:02;11.80;13.90
1351;DHT22;669;50.206;9.998;2023-10-31T12:33:30;11.80;12.30
1351;DHT22;669;50.206;9.998;2023-10-31T12:35:59;11.70;13.80
1351;DHT22;669;50.206;9.998;2023-10-31T12:38:28;11.80;14.60
1351;DHT22;669;50.206;9.998;2023-10-31T12:40:57;11.80;15.00
1351;DHT22;669;50.206;9.998;2023-10-31T12:43:26;11.80;15.70
1351;DHT22;669;50.206;9.998;2023-10-31T12:45:56;11.80;14.50
1351;DHT22;669;50.206;9.998;2023-10-31T12:48:25;11.80;14.30
1351;DHT22;669;50.206;9.998;2023-10-31T12:51:06;11.80;14.70
1351;DHT22;669;50.206;9.998;2023-10-31T12:53:35;11.80;14.70
1351;DHT22;669;50.206;9.998;2023-10-31T12:56:04;11.70;13.90
1351;DHT22;669;50.206;9.998;2023-10-31T12:58:32;11.80;12.70
1351;DHT22;669;50.206;9.998;2023-10-31T13:01:01;11.70;13.70
1351;DHT22;669;50.206;9.998;2023-10-31T13:03:30;11.50;15.10
1351;DHT22;669;50.206;9.998;2023-10-31T13:05:58;11.40;15.60
1351;DHT22;669;50.206;9.998;2023-10-31T13:08:26;11.30;16.70
1351;DHT22;669;50.206;9.998;2023-10-31T13:10:56;11.30;16.10
1351;DHT22;669;50.206;9.998;2023-10-31T13:13:24;11.30;16.70
1351;DHT22;669;50.206;9.998;2023-10-31T13:15:52;11.30;15.60
1351;DHT22;669;50.206;9.998;2023-10-31T13:18:20;11.30;16.70
1351;DHT22;669;50.206;9.998;2023-10-31T13:20:50;11.40;16.20
1351;DHT22;669;50.206;9.998;2023-10-31T13:23:18;11.30;15.00
1351;DHT22;669;50.206;9.998;2023-10-31T13:25:46;11.30;15.40
1351;DHT22;669;50.206;9.998;2023-10-31T13:28:14;11.30;15.10
1351;DHT22;669;50.206;9.998;2023-10-31T13:30:42;11.20;15.30
1351;DHT22;669;50.206;9.998;2023-10-31T13:33:12;11.20;15.80
1351;DHT22;669;50.206;9.998;2023-10-31T13:35:40;11.10;15.40
1351;DHT22;669;50.206;9.998;2023-10-31T13:38:09;11.10;16.50
1351;DHT22;669;50.206;9.998;2023-10-31T13:40:37;11.00;16.50
1351;DHT22;669;50.206;9.998;2023-10-31T13:43:06;11.00;16.80
1351;DHT22;669;50.206;9.998;2023-10-31T13:45:35;11.00;17.30
1351;DHT22;669;50.206;9.998;2023-10-31T13:48:03;11.00;17.30
1351;DHT22;669;50.206;9.998;2023-10-31T13:50:31;11.00;16.50
1351;DHT22;669;50.206;9.998;2023-10-31T13:52:59;11.00;17.40
1351;DHT22;669;50.206;9.998;2023-10-31T13:55:28;11.00;18.10
1351;DHT22;669;50.206;9.998;2023-10-31T13:57:56;11.00;17.50
1351;DHT22;669;50.206;9.998;2023-10-31T14:00:24;11.10;16.90
1351;DHT22;669;50.206;9.998;2023-10-31T14:02:52;11.00;17.80
1351;DHT22;669;50.206;9.998;2023-10-31T14:05:20;11.00;18.60
1351;DHT22;669;50.206;9.998;2023-10-31T14:07:48;11.00;18.60
1351;DHT22;669;50.206;9.998;2023-10-31T14:10:17;11.00;18.80
1351;DHT22;669;50.206;9.998;2023-10-31T14:12:47;11.00;19.20
1351;DHT22;669;50.206;9.998;2023-10-31T14:15:16;11.00;19.00
1351;DHT22;669;50.206;9.998;2023-10-31T14:17:44;11.00;18.40
1351;DHT22;669;50.206;9.998;2023-10-31T14:20:12;11.00;18.40
1351;DHT22;669;50.206;9.998;2023-10-31T14:22:40;11.00;18.70
1351;DHT22;669;50.206;9.998;2023-10-31T14:25:08;11.00;18.60
1351;DHT22;669;50.206;9.998;2023-10-31T14:27:36;11.00;18.60
1351;DHT22;669;50.206;9.998;2023-10-31T14:30:07;11.00;17.40
1351;DHT22;669;50.206;9.998;2023-10-31T14:32:35;11.00;18.30
1351;DHT22;669;50.206;9.998;2023-10-31T14:35:04;11.00;17.90
1351;DHT22;669;50.206;9.998;2023-10-31T14:37:33;11.00;17.40
1351;DHT22;669;50.206;9.998;2023-10-31T14:40:02;11.00;17.70
1351;DHT22;669;50.206;9.998;2023-10-31T14:42:31;11.00;17.50
1351;DHT22;669;50.206;9.998;2023-10-31T14:44:59;11.00;17.70
1351;DHT22;669;50.206;9.998;2023-10-31T14:47:28;11.00;18.10
1351;DHT22;669;50.206;9.998;2023-10-31T14:49:56;11.00;17.40
1351;DHT22;669;50.206;9.998;2023-10-31T14:52:24;11.10;17.40
1351;DHT22;669;50.206;9.998;2023-10-31T14:54:52;11.10;17.60
1351;DHT22;669;50.206;9.998;2023-10-31T14:57:20;11.10;17.50
1351;DHT22;669;50.206;9.998;2023-10-31T14:59:48;11.10;17.30
1351;DHT22;669;50.206;9.998;2023-10-31T15:02:16;11.20;16.60
1351;DHT22;669;50.206;9.998;2023-10-31T15:04:46;11.20;16.90
1351;DHT22;669;50.206;9.998;2023-10-31T15:07:14;11.20;16.70
1351;DHT22;669;50.206;9.998;2023-10-31T15:09:42;11.20;16.60
1351;DHT22;669;50.206;9.998;2023-10-31T15:12:10;11.20;16.60
1351;DHT22;669;50.206;9.998;2023-10-31T15:14:39;11.20;16.60
1351;DHT22;669;50.206;9.998;2023-10-31T15:17:07;11.20;16.60
1351;DHT22;669;50.206;9.998;2023-10-31T15:19:35;11.20;16.10
1351;DHT22;669;50.206;9.998;2023-10-31T15:22:04;11.20;17.20
1351;DHT22;669;50.206;9.998;2023-10-31T15:24:32;11.20;15.90
1351;DHT22;669;50.206;9.998;2023-10-31T15:27:00;11.20;15.90
1351;DHT22;669;50.206;9.998;2023-10-31T15:29:28;11.20;17.20
1351;DHT22;669;50.206;9.998;2023-10-31T15:31:56;11.20;16.60
1351;DHT22;669;50.206;9.998;2023-10-31T15:34:24;11.10;16.50
1351;DHT22;669;50.206;9.998;2023-10-31T15:36:52;11.10;17.10
1351;DHT22;669;50.206;9.998;2023-10-31T15:39:21;11.10;17.90
1351;DHT22;669;50.206;9.998;2023-10-31T15:41:49;11.00;17.70
1351;DHT22;669;50.206;9.998;2023-10-31T15:44:17;11.10;17.40
1351;DHT22;669;50.206;9.998;2023-10-31T15:46:46;11.00;17.50
1351;DHT22;669;50.206;9.998;2023-10-31T15:49:14;10.90;17.90
1351;DHT22;669;50.206;9.998;2023-10-31T15:51:42;10.90;18.00
1351;DHT22;669;50.206;9.998;2023-10-31T15:54:10;10.90;18.30
1351;DHT22;669;50.206;9.998;2023-10-31T15:56:39;10.90;18.30
1351;DHT22;669;50.206;9.998;2023-10-31T15:59:07;10.80;18.30
1351;DHT22;669;50.206;9.998;2023-10-31T16:01:35;10.80;18.80
1351;DHT22;669;50.206;9.998;2023-10-31T16:04:03;10.80;18.60
1351;DHT22;669;50.206;9.998;2023-10-31T16:06:31;10.70;18.70
1351;DHT22;669;50.206;9.998;2023-10-31T16:08:59;10.70;18.60
1351;DHT22;669;50.206;9.998;2023-10-31T16:11:27;10.70;19.10
1351;DHT22;669;50.206;9.998;2023-10-31T16:13:56;10.60;19.60
1351;DHT22;669;50.206;9.998;2023-10-31T16:16:24;10.60;20.10
1351;DHT22;669;50.206;9.998;2023-10-31T16:18:52;10.50;20.40
1351;DHT22;669;50.206;9.998;2023-10-31T16:21:21;10.50;20.70
1351;DHT22;669;50.206;9.998;2023-10-31T16:23:50;10.50;20.90
1351;DHT22;669;50.206;9.998;2023-10-31T16:26:19;10.40;21.00
1351;DHT22;669;50.206;9.998;2023-10-31T16:28:47;10.40;21.30
1351;DHT22;669;50.206;9.998;2023-10-31T16:31:17;10.30;21.50